Regionale Übersicht

METAR und TAF

Montag, 10. Mai 2021 - 20:56 Uhr

Beobachtete horizontale meteorologische Sicht an ausgewählten Flughäfen. Die vollständigen METARs und Flugwettervorhersagen (TAFs) sind verfügbar, wenn Sie auf das entsprechende Symbol mit der ICAO-Flughafenkennung klicken.

  • Luxemburg (ELLX)

    Taf: TAF ELLX 101700Z 1018/1124 18007KT 9999 FEW010 BKN020 TEMPO 1021/1106 4000 RA SCT006 BKN010 TEMPO 1106/1113 VRB02KT TEMPO 1106/1120 SHRA SCT012TCU BKN015 BECMG 1113/1117 27008KT=

    Metar: METAR ELLX 101820Z 15005KT 9999 FEW018 SCT039 BKN045 13/10 Q1009 NOSIG=

  • Spangdahlem (ETAD)

    Taf: TAF ETAD 101200Z 1012/1118 19015G25KT 9999 BKN025 OVC040 620905 QNH2980INS TEMPO 1012/1013 8000 -RA BECMG 1013/1014 22010G15KT 9999 BKN040 OVC100 620908 QNH2979INS BECMG 1017/1018 18007KT 9999 OVC120 QNH2976INS BECMG 1019/1020 19006KT 9000 -SHRA OVC012 610608 QNH2979INS BECMG 1023/1024 VRB05KT 8000 RA OVC008 620509 QNH2980INS BECMG 1104/1105 VRB05KT 9000 -SHRA OVC015 610609 QNH2972INS TX16/1012Z TN11/1102Z=

    Metar: METAR ETAD 101756Z AUTO 20005KT 9999 BKN026 OVC032 14/10 A2982 RMK AO2 CIG 026V032 BKN V FEW SLP085 T01360098 10160 20136 52004 $=

  • Metz/Nancy (LFJL)

    Taf: TAF LFJL 101700Z 1018/1118 15006KT 9999 SCT040 BKN070 PROB40 TEMPO 1018/1106 4000 RA BKN010 TEMPO 1108/1112 4000 SHRA BKN014 SCT030TCU TEMPO 1115/1118 28015G25KT 4000 SHRA SCT030CB=

    Metar: METAR LFJL 101830Z AUTO 17006KT CAVOK 13/10 Q1010 TEMPO 4000 RA BKN010=

  • Saarbrücken/Intl (EDDR)

    Taf: TAF EDDR 101700Z 1018/1118 26004KT 9999 SCT010 BKN025 TEMPO 1018/1024 RA BKN010 PROB40 TEMPO 1100/1106 3500 -RADZ BR BKN005 PROB30 TEMPO 1106/1113 3000 RA BKN005 BECMG 1108/1111 26009KT=

    Metar: METAR EDDR 101820Z 23004KT 200V260 9999 -RA FEW009 SCT012 12/11 Q1010 TEMPO BKN012=

  • Hahn (EDFH)

    Taf: TAF EDFH 101800Z NIL=

    Metar: METAR EDFH 101820Z 15006KT 9999 SCT022 12/11 Q1010=

  • Ramstein (ETAR)

    Taf: TAF ETAR 101800Z 1018/1124 VRB06KT 8000 -SHRA BR BKN015 OVC030 QNH2973INS TEMPO 1018/1024 BKN020 BECMG 1107/1108 36009KT 9999 NSW BKN015 QNH2972INS BECMG 1113/1114 VRB06KT 8000 -SHRA BKN020 610606 QNH2973INS BECMG 1120/1121 28009KT 9999 NSW BKN010 620604 QNH2976INS TX15/1112Z TN09/1103Z=

    Metar: METAR ETAR 101756Z 27005KT 8000 -RA BR BKN013 OVC019 13/13 A2984 RMK AO2A CIG 010 RWY08 SLP105 P0002 60014 T01320132 10145 20132 58001 FZRANO $=

  • Nancy/Ochey (LFSO)

    Taf: TAF AMD LFSO 101502Z 1015/1115 CNL=

    Metar: METAR LFSO 101830Z AUTO 14008KT CAVOK 12/10 Q1010=

  • Liège Bierset (EBLG)

    Taf: TAF EBLG 101710Z 1018/1124 16004KT CAVOK PROB30 TEMPO 1102/1107 4000 RA SHRA BKN014 PROB40 TEMPO 1111/1120 3500 SHRA PROB30 TEMPO 1112/1120 VRB15G25KT 2000 TSRA=

    Metar: METAR EBLG 101820Z 23007KT CAVOK 17/08 Q1008 NOSIG=

  • Saint-Dizier (LFSI)

    Taf: TAF LFSI 101400Z 1015/1115 19005KT 9999 BKN040 TEMPO 1104/1107 BKN010 TEMPO 1107/1115 4000 SHRA BKN020CB BKN040=

    Metar: METAR LFSI 101830Z AUTO 15006KT 120V180 CAVOK 15/11 Q1009=

  • Maastricht/Zuid Limburg (EHBK)

    Taf: TAF EHBK 101713Z 1018/1124 21007KT CAVOK PROB40 TEMPO 1102/1121 4000 SHRA SCT030CB BECMG 1115/1118 27010KT PROB30 1121/1124 BKN012=

    Metar: METAR EHBK 101825Z AUTO 19006KT 9999 NSC 18/08 Q1007 NOSIG=

  • Köln/Köln-Bonn (EDDK)

    Taf: TAF EDDK 101700Z 1018/1124 14004KT 9999 SCT030 PROB30 TEMPO 1023/1105 RA PROB30 TEMPO 1105/1116 4000 RA BKN010 BECMG 1108/1111 30007KT PROB30 TEMPO 1116/1121 BKN012 TEMPO 1121/1124 BKN008=

    Metar: METAR EDDK 101820Z 18006KT 9999 FEW043 17/09 Q1009 NOSIG=

  • Charleroi (EBCI)

    Taf: TAF EBCI 101710Z 1018/1124 16004KT CAVOK PROB40 TEMPO 1111/1120 3500 SHRA PROB30 TEMPO 1112/1120 VRB15G25KT 2000 TSRA=

    Metar: METAR EBCI 101820Z 19007KT 150V220 CAVOK 16/07 Q1008 NOSIG=

  • Wiesbaden (ETOU)

    Taf: TAF AMD ETOU 101745Z 1017/1118 22010KT 9000 -RA BKN060 OVC075 620605 QNH2979INS BECMG 1021/1022 32006KT 4800 -RA BKN011 OVC030 620907 QNH2976INS BECMG 1105/1107 31006KT 8000 BR FEW011 BKN020 OVC026 QNH2974INS TEMPO 1114/1118 30015G30KT 4800 TSRA BKN015CB OVC030 TX16/1111Z TN13/1105Z=

    Metar: METAR ETOU 101756Z AUTO 00000KT 9999 -RA FEW048 BKN065 OVC080 14/14 A2984 RMK AO2 SLP106 P0002 60011 T01390137 10162 20139 50000 $=

  • Karlsruhe/Baden-Baden (EDSB)

    Taf: TAF EDSB 101700Z 1018/1118 19004KT 9999 FEW015 SCT045 TEMPO 1018/1024 RA TEMPO 1100/1109 4000 -RA BR BKN014 PROB40 TEMPO 1109/1115 RA BKN014=

    Metar: METAR EDSB 101820Z 22002KT 9000 -RA BKN025 13/12 Q1011=

  • Chalons/Vatry (LFOK)

    Taf: TAF LFOK 101700Z 1018/1118 19008KT 9999 SCT040 TEMPO 1023/1103 3000 SHRA BKN030CB TEMPO 1103/1118 3000 SHRA BKN030CB PROB30 TEMPO 1112/1118 20015G25KT TSRA=

    Metar: METAR LFOK 101830Z AUTO 17007KT CAVOK 14/11 Q1008 NOSIG=

  • Frankfurt/Main (EDDF)

    Taf: TAF EDDF 101800Z NIL=

    Metar: METAR EDDF 101820Z 17003KT 140V200 9999 -RA FEW008 14/13 Q1010 NOSIG=

  • Brüssel (EBBR)

    Taf: TAF EBBR 101710Z 1018/1124 17004KT CAVOK PROB40 TEMPO 1112/1120 3500 SHRA PROB30 TEMPO 1113/1120 VRB15G25KT 2000 TSRA=

    Metar: METAR EBBR 101820Z 22007KT CAVOK 17/06 Q1007 NOSIG=

  • Düsseldorf (EDDL)

    Taf: TAF EDDL 101700Z 1018/1124 16005KT 9999 SCT030 PROB30 TEMPO 1100/1106 RA PROB30 TEMPO 1106/1116 4000 RA BKN010 BECMG 1108/1111 30006KT PROB30 TEMPO 1116/1121 BKN012 PROB30 TEMPO 1121/1124 BKN008=

    Metar: METAR EDDL 101820Z 17009KT 9999 FEW044 SCT048 18/10 Q1008 NOSIG=

  • Luxeuil (LFSX)

    Taf: TAF LFSX 101400Z 1015/1115 13007KT CAVOK TEMPO 1022/1104 BKN007 TEMPO 1111/1115 4000 SHRA OVC010CB=

    Metar: METAR LFSX 101830Z AUTO VRB02KT 9000 -RA FEW010/// BKN041/// OVC072/// ///TCU 12/11 Q1010=

  • Eindhoven (EHEH)

    Taf: TAF EHEH 101739Z 1018/1124 20010KT CAVOK BECMG 1018/1021 VRB03KT PROB30 1022/1106 4000 BR MIFG TEMPO 1110/1120 VRB05G15KT 4500 -SHRA SCT045 SCT050CB BKN060 BECMG 1116/1119 27007KT=

    Metar: METAR EHEH 101825Z AUTO 22006KT 9999 OVC170 17/08 Q1007 BLU NOSIG=

  • Niederrhein (EDLV)

    Taf: TAF EDLV 101700Z 1018/1118 17004KT 9999 SCT040 PROB30 TEMPO 1101/1109 4000 RA BKN010 PROB30 TEMPO 1109/1118 BKN012 BECMG 1110/1113 30005KT=

    Metar: METAR EDLV 101820Z 14005KT CAVOK 19/09 Q1007=

  • Dortmund/Wickede (EDLW)

    Taf: TAF EDLW 101700Z 1018/1118 17005KT 9999 SCT030 PROB30 TEMPO 1100/1105 RA PROB30 TEMPO 1105/1112 3000 RA BKN008 BECMG 1106/1109 01004KT BECMG 1112/1115 31005KT PROB30 TEMPO 1112/1118 4000 RA BKN012=

    Metar: METAR COR EDLW 101820Z 21006KT CAVOK 17/11 Q1009=

  • Stuttgart/Echterdingen (EDDS)

    Taf: TAF EDDS 101700Z 1018/1118 34008KT 9999 SCT045 TEMPO 1103/1107 VRB03KT PROB30 TEMPO 1114/1118 RA BKN014=

    Metar: METAR COR EDDS 101820Z 34005KT 9999 FEW045 15/09 Q1010 NOSIG=

  • Basel-Mühlhausen (LFSB)

    Taf: TAF AMD LFSB 101833Z 1018/1118 28004KT 9999 SCT040 BKN100 TEMPO 1018/1106 4000 -RA OVC008 TEMPO 1106/1118 SHRA FEW020TCU BKN050=

    Metar: METAR LFSB 101830Z AUTO 24003KT 9999 -RA SCT050 BKN084 OVC100 13/12 Q1010 TEMPO 4500 RA BKN008=

  • Lille (LFQQ)

    Taf: TAF LFQQ 101700Z 1018/1124 21012KT 9999 SCT030 TEMPO 1018/1019 21020G30KT 3000 SHRA BKN030CB BECMG 1018/1021 VRB03KT TEMPO 1104/1106 4000 BR TEMPO 1110/1118 21020G30KT 3000 SHRA BKN030CB=

    Metar: METAR LFQQ 101830Z AUTO 19008KT 9999 ///CB 18/07 Q1007 BECMG SCT030=

  • Paris/Charles de Gaulle (LFPG)

    Taf: TAF LFPG 101700Z 1018/1124 18012KT 9999 SCT045 TX16/1112Z TN08/1105Z TEMPO 1018/1020 SCT045TCU PROB40 TEMPO 1018/1020 19015G25KT 4000 SHRA BKN040CB BECMG 1108/1110 24010KT TEMPO 1110/1114 BKN040TCU PROB40 TEMPO 1111/1114 4000 SHRA BKN040CB=

    Metar: METAR LFPG 101830Z 14009KT 9999 VCSH FEW025 FEW030CB BKN100 BKN200 16/10 Q1008 TEMPO SCT045TCU=

  • Paderborn/Lippstadt (EDLP)

    Taf: TAF EDLP 101700Z 1018/1118 17004KT 9999 SCT030 TEMPO 1019/1104 RA PROB30 TEMPO 1023/1103 4000 +TSRA BKN010CB PROB30 TEMPO 1104/1112 2500 RA BKN005 BECMG 1107/1110 01005KT BECMG 1110/1113 30005KT PROB30 TEMPO 1112/1118 4000 RA BKN010=

    Metar: METAR EDLP 101820Z 00000KT CAVOK 17/11 Q1009=

  • Paris/Le Bourget (LFPB)

    Taf: TAF LFPB 101800Z NIL=

    Metar: METAR LFPB 101830Z AUTO 14012KT 9999 ///CB 15/11 Q1007 TEMPO 19015G25KT 4000 SHRA BECMG SCT045=

  • Rotterdam (EHRD)

    Taf: TAF EHRD 101714Z 1018/1124 26009KT 9999 FEW040 BECMG 1018/1021 09004KT TEMPO 1111/1120 VRB14KT 6000 SHRA SCT020CB BECMG 1118/1121 26009KT=

    Metar: METAR EHRD 101825Z AUTO 28004KT 250V310 9999 NSC 15/10 Q1007 NOSIG=

  • Zürich/Kloten (LSZH)

    Taf: TAF LSZH 101800Z NIL=

    Metar: METAR LSZH 101820Z 28006KT 9999 BKN039 15/09 Q1009 NOSIG=

  • Oostende/Intl (EBOS)

    Taf: TAF EBOS 101710Z 1018/1124 VRB05KT CAVOK PROB30 TEMPO 1114/1119 VRB15G25KT 3500 SHRA TSRA=

    Metar: METAR EBOS 101820Z 21007KT 170V230 9999 FEW036 16/08 Q1007 NOSIG=

  • Paris/Orly (LFPO)

    Taf: TAF LFPO 101800Z NIL=

    Metar: METAR LFPO 101830Z 09004KT 070V150 9999 FEW050CB SCT066 BKN096 13/11 Q1008 RESHRA RETSRA NOSIG=

  • Beauvais (LFOB)

    Taf: TAF LFOB 101700Z 1018/1118 22012KT 9999 SCT040 TEMPO 1018/1020 3000 SHRA BKN030TCU BECMG 1020/1022 16005KT TEMPO 1104/1106 4000 BR BECMG 1108/1111 25012KT TEMPO 1112/1117 3000 SHRA BKN030CB=

    Metar: METAR LFOB 101830Z AUTO 18008KT CAVOK 15/09 Q1007 TEMPO 3000 SHRA BKN030TCU=

  • Münster/Intl (EDDG)

    Taf: TAF EDDG 101700Z 1018/1118 VRB03KT 9999 SCT030 PROB30 TEMPO 1100/1105 4000 RA PROB30 TEMPO 1105/1112 4000 RA BKN008 PROB30 TEMPO 1112/1118 RA BKN012=

    Metar: METAR EDDG 101820Z 20004KT 160V240 CAVOK 18/10 Q1009 NOSIG=

  • Illesheim (ETIK)

    Taf: TAF ETIK 1014/1120 27009KT 9999 FEW150 QNH2976INS TEMPO 1014/1018 27015G20KT 8000 SHRA SCT015 BKN050 BECMG 1023/1024 24006KT 8000 BR SCT020 BKN080 BKN150 QNH2971INS BECMG 1105/1106 30009KT 9999 NSW BKN015 QNH2971INS TX24/1112Z TN12/1100Z=

    Metar: METAR ETIK 101756Z AUTO 31006KT 9999 CLR 18/09 A2982 RMK AO2 SLP090 T01770088 10230 20177 57002 $=

  • Duebendorf (LSMD)

    Taf: TAF LSMD 101625Z 1017/1123 30005KT 9999 FEW040 SCT090 TEMPO 1110/1123 4000 SHRA PROB40 TEMPO 1110/1118 30015G25KT=

    Metar: METAR LSMD 101820Z AUTO 30005KT 9999NDV BKN039 15/09 Q1009 RMK=

  • Villacoublay (LFPV)

    Taf: TAF LFPV 101400Z 1015/1115 20010KT 9999 SCT040 TX17/1016Z TN09/1104Z PROB40 TEMPO 1015/1020 22010G20KT 4500 -SHRA BKN045TCU BECMG 1100/1102 VRB03KT BECMG 1108/1110 27010KT TEMPO 1110/1115 SCT040TCU=

    Metar: METAR LFPV 101830Z AUTO 14007KT 110V170 9999 ///TCU 15/09 Q1007 TEMPO 4500 -SHRA BECMG SCT040=

  • Payerne (LSMP)

    Taf: TAF LSMP 101625Z 1017/1123 24005KT 8000 -RA FEW013 SCT030 BKN040 PROB40 TEMPO 1017/1020 4500 RA BR PROB30 TEMPO 1021/1101 4500 SHRA FEW020TCU TEMPO 1105/1112 RA PROB30 TEMPO 1116/1121 4500 SHRA FEW025TCU=

    Metar: METAR LSMP 101820Z VRB02KT 7000 -RA BKN003 13/12 Q1010 RERA RMK YLO=

  • Amsterdam/Schipol (EHAM)

    Taf: TAF EHAM 101714Z 1018/1124 26009KT 9999 FEW040 BECMG 1018/1021 09004KT TEMPO 1111/1120 VRB14KT 6000 SHRA SCT020CB BECMG 1118/1121 26010KT=

    Metar: METAR EHAM 101825Z 28006KT 9999 FEW040 14/09 Q1007 NOSIG=

  • Emmen (LSME)

    Taf: TAF LSME 101625Z 1017/1123 30005KT 9999 FEW050 SCT090 TEMPO 1110/1123 4000 SHRA PROB40 TEMPO 1110/1118 30015G25KT=

    Metar: METAR LSME 101820Z AUTO VRB01KT 9999NDV SCT040 BKN110 15/10 Q1010 RMK=

  • Friedrichshafen (EDNY)

    Taf: TAF EDNY 101700Z 1018/1118 23005KT CAVOK TEMPO 1018/1107 30004KT PROB30 TEMPO 1018/1103 03006KT BECMG 1107/1110 27010KT PROB40 TEMPO 1112/1116 27015G25KT RA BKN013=

    Metar: METAR EDNY 101820Z AUTO 03005KT 340V080 9999 // FEW084/// BKN120/// BKN240/// 18/10 Q1008=

  • Alpnach (LSMA)

    Taf: TAF LSMA 101625Z 1017/1123 05005KT 9999 FEW050 SCT090 TEMPO 1110/1123 4000 SHRA PROB40 TEMPO 1110/1118 05015G25KT=

    Metar: METAR LSMA 101820Z AUTO 07012KT 030V110 9999NDV SCT039 BKN087 15/10 Q1009 RMK=

  • Meiringen (LSMM)

    Taf: TAF LSMM 101625Z 1017/1123 27005KT 9999 FEW030 SCT100 TEMPO 1021/1123 RA PROB40 TEMPO 1110/1118 27015G25KT 4000 SHRA=

    Metar: METAR LSMM 101820Z AUTO 27003KT 230V340 9999NDV FEW022 BKN030 OVC082 14/12 Q1009 RMK=

  • Nürnberg (EDDN)

    Taf: TAF EDDN 101700Z 1018/1118 32010KT CAVOK BECMG 1021/1023 29004KT BECMG 1110/1113 27010KT PROB30 TEMPO 1116/1118 27015G25KT TSRA BKN020CB=

    Metar: METAR EDDN 101820Z 33008KT 300V360 CAVOK 20/09 Q1008 NOSIG=

  • Rouen (LFOP)

    Taf: TAF LFOP 101700Z 1018/1118 21012KT 9999 SCT030 TEMPO 1018/1020 21020G30KT 3000 SHRA BKN030TCU BECMG 1018/1020 VRB02KT TEMPO 1104/1106 4000 BR TEMPO 1110/1118 21020G30KT 3000 SHRA BKN030CB=

    Metar: METAR LFOP 101830Z AUTO 21010KT 180V240 9999 ///CB 15/06 Q1006 TEMPO 21020G30KT 3000 SHRA BECMG SCT030=

  • Evreux (LFOE)

    Taf: TAF AMD LFOE 101837Z 1018/1115 19008KT CAVOK TEMPO 1018/1020 23015G25KT 4000 -SHRA BKN040CB PROB30 1101/1105 4500 BR BECMG 1108/1109 22010G20KT SCT030 SCT035TCU TEMPO 1109/1114 3000 -SHRA BKN030 BKN035TCU=

    Metar: METAR LFOE 101830Z AUTO 21010KT 9999 FEW049/// SCT056/// BKN066/// ///CB 15/08 Q1007 BECMG SCT045=

  • Erfurt/Bindersleben (EDDE)

    Taf: TAF EDDE 101700Z 1018/1118 32008KT 9999 SCT045 PROB40 TEMPO 1020/1024 22015G25KT TSRA BKN030CB TEMPO 1101/1106 4000 BR BKN008 TEMPO 1106/1108 BKN012 PROB30 TEMPO 1114/1118 18015G25KT TSRA BKN030CB=

    Metar: METAR EDDE 101820Z 29006KT CAVOK 18/09 Q1009 NOSIG=